createdAt,value
2023-03-11T00:01:52.281Z,44.63
2023-03-11T00:04:19.625Z,46.80
2023-03-11T00:06:46.955Z,47.03
2023-03-11T00:09:14.742Z,46.35
2023-03-11T00:11:42.046Z,45.08
2023-03-11T00:14:09.328Z,43.10
2023-03-11T00:16:36.667Z,48.00
2023-03-11T00:19:04.012Z,46.10
2023-03-11T00:21:31.384Z,42.15
2023-03-11T00:24:01.184Z,39.47
2023-03-11T00:26:28.477Z,38.38
2023-03-11T00:28:55.907Z,37.50
2023-03-11T00:31:23.298Z,39.80
2023-03-11T00:33:50.575Z,38.53
2023-03-11T00:36:28.885Z,35.80
2023-03-11T00:38:56.275Z,40.75
2023-03-11T00:41:23.739Z,38.88
2023-03-11T00:43:51.008Z,38.87
2023-03-11T00:46:18.388Z,38.47
2023-03-11T00:48:45.724Z,33.55
2023-03-11T00:51:15.963Z,35.40
2023-03-11T00:53:43.456Z,39.33
2023-03-11T00:56:11.735Z,35.87
2023-03-11T00:58:40.915Z,39.40
2023-03-11T01:01:09.539Z,36.30
2023-03-11T01:03:37.122Z,38.05
2023-03-11T01:06:04.746Z,38.67
2023-03-11T01:08:32.149Z,37.47
2023-03-11T01:10:59.624Z,37.63
2023-03-11T01:13:27.760Z,38.42
2023-03-11T01:15:55.938Z,39.20
2023-03-11T01:18:23.456Z,38.78
2023-03-11T01:20:50.744Z,37.80
2023-03-11T01:23:18.928Z,40.15
2023-03-11T01:25:46.330Z,39.30
2023-03-11T01:28:13.623Z,41.10
2023-03-11T01:30:41.712Z,40.38
2023-03-11T01:33:11.173Z,41.67
2023-03-11T01:35:42.261Z,39.75
2023-03-11T01:38:09.879Z,40.38
2023-03-11T01:40:45.943Z,39.85
2023-03-11T01:43:39.938Z,42.75
2023-03-11T01:46:18.981Z,41.47
2023-03-11T01:48:48.744Z,41.78
2023-03-11T01:51:17.874Z,42.47
2023-03-11T01:53:45.450Z,40.42
2023-03-11T01:56:12.820Z,43.42
2023-03-11T01:58:41.374Z,40.63
2023-03-11T02:01:08.643Z,42.53
2023-03-11T02:03:40.387Z,37.25
2023-03-11T02:06:15.294Z,35.25
2023-03-11T02:08:42.867Z,37.08
2023-03-11T02:11:14.335Z,37.60
2023-03-11T02:13:41.753Z,32.67
2023-03-11T02:16:09.207Z,36.97
2023-03-11T02:18:37.170Z,34.53
2023-03-11T02:21:14.155Z,29.75
2023-03-11T02:23:57.999Z,25.17
2023-03-11T02:26:55.904Z,19.50
2023-03-11T02:29:24.664Z,12.93
2023-03-11T02:31:52.414Z,9.25
2023-03-11T02:34:31.419Z,7.78
2023-03-11T02:36:59.387Z,8.07
2023-03-11T02:39:33.193Z,6.85
2023-03-11T02:42:06.311Z,6.35
2023-03-11T02:44:33.716Z,5.38
2023-03-11T02:47:01.213Z,6.28
2023-03-11T02:49:29.911Z,6.50
2023-03-11T02:51:57.276Z,6.72
2023-03-11T02:54:24.661Z,7.20
2023-03-11T02:56:52.101Z,5.95
2023-03-11T02:59:19.473Z,5.05
2023-03-11T03:01:46.837Z,4.53
2023-03-11T03:04:14.198Z,5.30
2023-03-11T03:06:41.586Z,7.07
2023-03-11T03:09:09.009Z,3.17
2023-03-11T03:11:36.281Z,3.60
2023-03-11T03:14:03.563Z,4.07
2023-03-11T03:16:30.888Z,5.15
2023-03-11T03:18:58.168Z,3.00
2023-03-11T03:21:26.278Z,4.68
2023-03-11T03:23:54.324Z,4.03
2023-03-11T03:26:21.588Z,5.33
2023-03-11T03:28:49.998Z,4.47
2023-03-11T03:31:17.440Z,3.10
2023-03-11T03:33:44.857Z,3.08
2023-03-11T03:36:14.059Z,3.78
2023-03-11T03:38:44.654Z,2.60
2023-03-11T03:41:14.595Z,2.33
2023-03-11T03:43:42.366Z,2.67
2023-03-11T03:46:09.964Z,2.55
2023-03-11T03:48:43.976Z,2.40
2023-03-11T03:51:12.531Z,1.67
2023-03-11T03:53:46.573Z,3.10
2023-03-11T03:56:16.331Z,1.02
2023-03-11T03:58:44.737Z,1.55
2023-03-11T04:01:12.482Z,2.20
2023-03-11T04:03:41.015Z,3.43
2023-03-11T04:06:17.028Z,1.00
2023-03-11T04:08:44.417Z,2.30
2023-03-11T04:11:12.483Z,1.55
2023-03-11T04:13:40.143Z,2.38
2023-03-11T04:16:07.764Z,1.43
2023-03-11T04:18:35.161Z,2.25
2023-03-11T04:21:06.793Z,1.02
2023-03-11T04:23:34.538Z,1.63
2023-03-11T04:26:02.719Z,2.33
2023-03-11T04:28:30.629Z,1.65
2023-03-11T04:30:58.345Z,1.70
2023-03-11T04:33:25.923Z,1.80
2023-03-11T04:35:53.303Z,1.92
2023-03-11T04:38:20.613Z,1.25
2023-03-11T04:40:48.166Z,1.43
2023-03-11T04:43:15.834Z,1.38
2023-03-11T04:45:43.129Z,1.67
2023-03-11T04:48:10.972Z,1.58
2023-03-11T04:50:39.953Z,1.67
2023-03-11T04:53:07.295Z,1.97
2023-03-11T04:55:34.814Z,1.25
2023-03-11T04:58:02.211Z,1.35
2023-03-11T05:00:29.967Z,1.92
2023-03-11T05:03:05.258Z,1.88
2023-03-11T05:05:32.555Z,0.73
2023-03-11T05:07:59.952Z,0.68
2023-03-11T05:10:30.780Z,1.70
2023-03-11T05:13:00.877Z,1.02
2023-03-11T05:15:32.952Z,0.65
2023-03-11T05:18:03.434Z,1.50
2023-03-11T05:20:32.301Z,1.95
2023-03-11T05:22:59.724Z,0.65
2023-03-11T05:25:29.218Z,1.40
2023-03-11T05:27:56.719Z,1.25
2023-03-11T05:30:24.351Z,2.20
2023-03-11T05:32:52.219Z,3.22
2023-03-11T05:35:20.758Z,4.43
2023-03-11T05:37:49.856Z,4.03
2023-03-11T05:40:19.002Z,1.60
2023-03-11T05:42:46.998Z,1.30
2023-03-11T05:45:15.557Z,1.63
2023-03-11T05:47:45.487Z,2.22
2023-03-11T05:50:14.748Z,1.92
2023-03-11T05:52:44.128Z,1.60
2023-03-11T05:55:12.673Z,3.87
2023-03-11T05:57:42.329Z,3.40
2023-03-11T06:00:13.001Z,1.98
2023-03-11T06:02:48.609Z,2.78
2023-03-11T06:05:18.642Z,1.58
2023-03-11T06:07:48.059Z,3.03
2023-03-11T06:10:15.590Z,2.53
2023-03-11T06:12:42.950Z,2.08
2023-03-11T06:15:33.349Z,1.42
2023-03-11T06:18:00.704Z,0.95
2023-03-11T06:20:28.278Z,1.37
2023-03-11T06:22:55.698Z,2.05
2023-03-11T06:25:24.218Z,1.00
2023-03-11T06:27:53.425Z,1.83
2023-03-11T06:30:22.207Z,2.10
2023-03-11T06:32:57.135Z,0.63
2023-03-11T06:35:24.516Z,1.38
2023-03-11T06:37:52.032Z,1.58
2023-03-11T06:40:19.487Z,1.98
2023-03-11T06:42:47.807Z,1.95
2023-03-11T06:45:15.538Z,1.13
2023-03-11T06:47:44.321Z,1.05
2023-03-11T06:50:12.052Z,0.90
2023-03-11T06:52:39.650Z,1.17
2023-03-11T06:55:08.690Z,1.42
2023-03-11T06:57:37.064Z,2.30
2023-03-11T07:00:11.842Z,2.03
2023-03-11T07:02:40.360Z,1.05
2023-03-11T07:05:08.210Z,2.08
2023-03-11T07:07:35.519Z,1.52
2023-03-11T07:10:05.088Z,2.53
2023-03-11T07:12:32.337Z,1.45
2023-03-11T07:15:00.092Z,0.90
2023-03-11T07:17:28.528Z,0.70
2023-03-11T07:19:56.344Z,1.20
2023-03-11T07:22:23.623Z,1.52
2023-03-11T07:24:50.926Z,1.00
2023-03-11T07:27:18.256Z,2.20
2023-03-11T07:29:45.574Z,0.82
2023-03-11T07:32:13.071Z,2.50
2023-03-11T07:34:40.459Z,1.92
2023-03-11T07:37:07.997Z,0.80
2023-03-11T07:39:35.293Z,1.50
2023-03-11T07:42:04.575Z,1.10
2023-03-11T07:44:36.274Z,2.63
2023-03-11T07:47:04.514Z,1.23
2023-03-11T07:49:32.255Z,1.17
2023-03-11T07:51:59.634Z,2.78
2023-03-11T07:54:26.950Z,2.05
2023-03-11T07:56:54.217Z,1.95
2023-03-11T07:59:21.540Z,2.17
2023-03-11T08:01:48.920Z,1.52
2023-03-11T08:04:17.267Z,2.92
2023-03-11T08:06:45.883Z,2.17
2023-03-11T08:09:13.528Z,1.58
2023-03-11T08:11:40.936Z,1.17
2023-03-11T08:14:08.265Z,1.25
2023-03-11T08:16:35.559Z,1.83
2023-03-11T08:19:02.836Z,1.58
2023-03-11T08:21:32.183Z,1.15
2023-03-11T08:24:00.682Z,1.95
2023-03-11T08:26:28.027Z,1.17
2023-03-11T08:28:55.770Z,2.10
2023-03-11T08:31:25.382Z,1.25
2023-03-11T08:33:54.227Z,2.50
2023-03-11T08:36:21.668Z,0.88
2023-03-11T08:38:48.975Z,2.17
2023-03-11T08:41:16.284Z,1.13
2023-03-11T08:43:44.536Z,1.50
2023-03-11T08:46:21.940Z,1.77
2023-03-11T08:48:49.295Z,1.48
2023-03-11T08:51:17.495Z,0.80
2023-03-11T08:53:44.802Z,1.15
2023-03-11T08:56:12.103Z,1.30
2023-03-11T08:58:39.389Z,1.00
2023-03-11T09:01:07.352Z,2.15
2023-03-11T09:03:37.992Z,2.28
2023-03-11T09:06:10.926Z,0.88
2023-03-11T09:08:38.381Z,2.15
2023-03-11T09:11:06.144Z,1.23
2023-03-11T09:13:33.562Z,0.88
2023-03-11T09:16:00.990Z,1.38
2023-03-11T09:18:29.386Z,0.93
2023-03-11T09:20:58.465Z,3.72
2023-03-11T09:23:25.779Z,0.85
2023-03-11T09:25:53.045Z,1.42
2023-03-11T09:28:20.309Z,1.08
2023-03-11T09:30:47.578Z,1.95
2023-03-11T09:33:14.915Z,1.00
2023-03-11T09:35:42.292Z,1.65
2023-03-11T09:38:09.578Z,1.95
2023-03-11T09:41:08.406Z,1.30
2023-03-11T09:43:50.835Z,1.33
2023-03-11T09:46:55.791Z,2.72
2023-03-11T09:49:38.443Z,2.47
2023-03-11T09:52:15.429Z,1.27
2023-03-11T09:54:45.418Z,2.45
2023-03-11T09:57:18.296Z,2.25
2023-03-11T09:59:46.153Z,1.05
2023-03-11T10:02:18.985Z,1.20
2023-03-11T10:04:58.810Z,0.65
2023-03-11T10:07:28.763Z,1.30
2023-03-11T10:09:57.404Z,2.35
2023-03-11T10:12:43.083Z,1.65
2023-03-11T10:15:18.109Z,0.85
2023-03-11T10:18:22.621Z,1.08
2023-03-11T10:20:49.849Z,0.40
2023-03-11T10:23:54.012Z,0.95
2023-03-11T10:26:34.338Z,2.72
2023-03-11T10:29:18.403Z,1.27
2023-03-11T10:32:13.354Z,1.85
2023-03-11T10:34:57.300Z,1.40
2023-03-11T10:37:42.573Z,1.60
2023-03-11T10:40:30.968Z,1.35
2023-03-11T10:43:01.088Z,0.60
2023-03-11T10:45:37.074Z,0.87
2023-03-11T10:48:10.047Z,0.75
2023-03-11T10:50:37.407Z,0.75
2023-03-11T10:53:05.796Z,1.60
2023-03-11T10:55:33.112Z,1.60
2023-03-11T10:58:10.843Z,1.42
2023-03-11T11:00:38.204Z,1.60
2023-03-11T11:03:06.834Z,1.13
2023-03-11T11:05:34.438Z,1.50
2023-03-11T11:08:08.914Z,0.90
2023-03-11T11:10:36.635Z,1.08
2023-03-11T11:13:13.052Z,1.38
2023-03-11T11:15:41.801Z,0.30
2023-03-11T11:18:20.048Z,0.50
2023-03-11T11:21:01.264Z,0.60
2023-03-11T11:23:40.913Z,1.25
2023-03-11T11:26:19.516Z,1.00
2023-03-11T11:28:46.868Z,0.35
2023-03-11T11:31:23.791Z,0.63
2023-03-11T11:33:55.397Z,0.40
2023-03-11T11:36:26.104Z,0.30
2023-03-11T11:38:54.580Z,1.60
2023-03-11T11:41:25.424Z,1.50
2023-03-11T11:43:57.896Z,0.85
2023-03-11T11:46:31.403Z,1.83
2023-03-11T11:49:04.561Z,2.83
2023-03-11T11:51:35.235Z,0.82
2023-03-11T11:54:09.946Z,0.85
2023-03-11T11:56:37.294Z,1.13
2023-03-11T11:59:09.668Z,1.42
2023-03-11T12:02:13.947Z,0.60
2023-03-11T12:04:51.000Z,1.08
2023-03-11T12:07:21.300Z,2.08
2023-03-11T12:10:23.390Z,2.08
2023-03-11T12:13:15.983Z,0.57
2023-03-11T12:16:06.039Z,0.73
2023-03-11T12:18:37.001Z,1.20
2023-03-11T12:21:28.146Z,1.85
2023-03-11T12:24:13.738Z,1.52
2023-03-11T12:26:41.719Z,0.80
2023-03-11T12:29:22.987Z,1.17
2023-03-11T12:31:50.365Z,0.63
2023-03-11T12:34:19.953Z,0.50
2023-03-11T12:36:47.343Z,0.80
2023-03-11T12:39:28.839Z,0.70
2023-03-11T12:42:11.240Z,0.70
2023-03-11T12:44:39.100Z,2.88
2023-03-11T12:47:12.378Z,1.42
2023-03-11T12:49:41.300Z,0.80
2023-03-11T12:52:14.368Z,0.50
2023-03-11T12:54:56.534Z,0.63
2023-03-11T12:57:31.175Z,0.95
2023-03-11T13:00:25.885Z,1.30
2023-03-11T13:03:21.062Z,1.25
2023-03-11T13:06:09.872Z,0.98
2023-03-11T13:08:49.439Z,1.00
2023-03-11T13:11:28.595Z,0.90
2023-03-11T13:14:09.738Z,0.70
2023-03-11T13:16:37.734Z,0.57
2023-03-11T13:19:33.780Z,0.40
2023-03-11T13:22:02.310Z,1.23
2023-03-11T13:24:29.739Z,1.25
2023-03-11T13:27:00.531Z,1.48
2023-03-11T13:29:37.473Z,1.05
2023-03-11T13:32:21.320Z,0.40
2023-03-11T13:35:07.358Z,0.87
2023-03-11T13:37:44.707Z,0.98
2023-03-11T13:40:14.126Z,0.43
2023-03-11T13:42:51.463Z,0.47
2023-03-11T13:45:30.355Z,0.82
2023-03-11T13:48:00.638Z,1.03
2023-03-11T13:50:30.970Z,0.68
2023-03-11T13:52:59.218Z,0.45
2023-03-11T13:55:55.864Z,1.40
2023-03-11T13:58:24.651Z,0.68
2023-03-11T14:00:55.365Z,0.97
2023-03-11T14:03:25.340Z,0.75
2023-03-11T14:06:01.556Z,1.35
2023-03-11T14:08:38.728Z,0.75
2023-03-11T14:11:11.902Z,0.98
2023-03-11T14:13:50.144Z,1.67
2023-03-11T14:16:43.722Z,1.25
2023-03-11T14:19:17.813Z,1.75
2023-03-11T14:21:46.168Z,1.23
2023-03-11T14:24:20.246Z,2.75
2023-03-11T14:26:48.729Z,2.33
2023-03-11T14:29:19.102Z,2.80
2023-03-11T14:31:46.834Z,1.65
2023-03-11T14:34:17.894Z,2.17
2023-03-11T14:36:48.597Z,1.80
2023-03-11T14:39:28.037Z,1.80
2023-03-11T14:42:02.724Z,2.55
2023-03-11T14:44:29.987Z,1.48
2023-03-11T14:47:08.445Z,2.38
2023-03-11T14:49:35.854Z,1.50
2023-03-11T14:52:08.189Z,1.97
2023-03-11T14:54:35.477Z,0.98
2023-03-11T14:57:18.754Z,1.17
2023-03-11T14:59:47.072Z,1.20
2023-03-11T15:02:29.777Z,2.15
2023-03-11T15:04:59.331Z,1.95
2023-03-11T15:07:26.729Z,1.25
2023-03-11T15:09:54.010Z,2.03
2023-03-11T15:12:39.954Z,1.80
2023-03-11T15:15:21.275Z,0.70
2023-03-11T15:17:59.266Z,1.88
2023-03-11T15:20:31.645Z,0.85
2023-03-11T15:23:03.047Z,1.05
2023-03-11T15:25:35.225Z,1.45
2023-03-11T15:28:25.200Z,1.63
2023-03-11T15:31:21.138Z,1.58
2023-03-11T15:33:49.594Z,2.20
2023-03-11T15:36:39.528Z,0.80
2023-03-11T15:39:25.698Z,1.02
2023-03-11T15:42:08.145Z,1.42
2023-03-11T15:44:37.425Z,1.38
2023-03-11T15:47:04.770Z,2.47
2023-03-11T15:49:32.057Z,1.15
2023-03-11T15:51:59.986Z,1.15
2023-03-11T15:54:27.587Z,1.88
2023-03-11T15:56:56.125Z,2.05
2023-03-11T15:59:23.434Z,1.17
2023-03-11T16:01:50.779Z,2.72
2023-03-11T16:04:19.145Z,0.73
2023-03-11T16:06:51.454Z,1.20
2023-03-11T16:09:23.889Z,0.70
2023-03-11T16:11:51.212Z,2.53
2023-03-11T16:14:20.011Z,1.88
2023-03-11T16:16:47.346Z,1.73
2023-03-11T16:19:14.612Z,2.65
2023-03-11T16:21:46.875Z,1.50
2023-03-11T16:24:18.323Z,1.52
2023-03-11T16:26:45.618Z,2.72
2023-03-11T16:29:19.338Z,3.25
2023-03-11T16:31:48.916Z,2.03
2023-03-11T16:34:16.205Z,3.40
2023-03-11T16:36:43.515Z,2.17
2023-03-11T16:39:10.807Z,4.00
2023-03-11T16:41:41.084Z,5.93
2023-03-11T16:44:09.750Z,1.88
2023-03-11T16:46:37.314Z,1.73
2023-03-11T16:49:05.352Z,2.35
2023-03-11T16:51:32.982Z,2.17
2023-03-11T16:54:00.449Z,1.65
2023-03-11T16:56:27.770Z,3.67
2023-03-11T16:58:55.074Z,1.10
2023-03-11T17:01:22.471Z,3.15
2023-03-11T17:03:50.832Z,3.35
2023-03-11T17:06:18.256Z,2.65
2023-03-11T17:08:49.379Z,2.38
2023-03-11T17:11:21.251Z,2.25
2023-03-11T17:13:48.853Z,2.35
2023-03-11T17:16:16.208Z,2.67
2023-03-11T17:18:43.565Z,1.55
2023-03-11T17:21:12.432Z,1.00
2023-03-11T17:23:39.726Z,1.85
2023-03-11T17:26:14.215Z,1.13
2023-03-11T17:28:41.547Z,1.98
2023-03-11T17:31:13.650Z,1.92
2023-03-11T17:33:41.027Z,2.33
2023-03-11T17:36:09.146Z,1.25
2023-03-11T17:38:36.479Z,2.28
2023-03-11T17:41:11.048Z,2.33
2023-03-11T17:43:38.551Z,2.50
2023-03-11T17:46:11.449Z,1.50
2023-03-11T17:48:38.752Z,1.27
2023-03-11T17:51:13.195Z,2.03
2023-03-11T17:53:40.768Z,2.30
2023-03-11T17:56:08.164Z,3.30
2023-03-11T17:58:35.502Z,2.80
2023-03-11T18:01:06.841Z,2.90
2023-03-11T18:03:34.120Z,4.28
2023-03-11T18:06:02.369Z,1.95
2023-03-11T18:08:29.898Z,1.92
2023-03-11T18:11:03.071Z,2.20
2023-03-11T18:13:30.632Z,1.73
2023-03-11T18:16:02.185Z,2.30
2023-03-11T18:18:29.841Z,1.63
2023-03-11T18:21:16.701Z,1.50
2023-03-11T18:23:44.115Z,1.83
2023-03-11T18:26:13.853Z,1.92
2023-03-11T18:28:41.765Z,4.63
2023-03-11T18:31:16.686Z,1.85
2023-03-11T18:33:48.070Z,2.72
2023-03-11T18:36:22.189Z,1.80
2023-03-11T18:38:50.611Z,4.30
2023-03-11T18:41:18.015Z,3.22
2023-03-11T18:43:45.269Z,2.88
2023-03-11T18:46:14.412Z,2.65
2023-03-11T18:48:41.872Z,2.65
2023-03-11T18:51:09.486Z,1.83
2023-03-11T18:53:36.821Z,1.85
2023-03-11T18:56:08.723Z,2.10
2023-03-11T18:58:36.054Z,2.15
2023-03-11T19:01:05.380Z,4.80
2023-03-11T19:03:32.789Z,2.00
2023-03-11T19:06:00.119Z,1.38
2023-03-11T19:08:27.963Z,1.73
2023-03-11T19:10:55.233Z,2.15
2023-03-11T19:13:22.586Z,2.47
2023-03-11T19:15:49.945Z,2.20
2023-03-11T19:18:17.299Z,2.47
2023-03-11T19:20:44.582Z,2.60
2023-03-11T19:23:11.874Z,2.13
2023-03-11T19:25:39.150Z,3.03
2023-03-11T19:28:06.449Z,2.42
2023-03-11T19:30:33.790Z,3.25
2023-03-11T19:33:01.145Z,1.83
2023-03-11T19:35:28.426Z,1.88
2023-03-11T19:37:57.397Z,3.13
2023-03-11T19:40:24.820Z,2.55
2023-03-11T19:42:52.560Z,3.30
2023-03-11T19:45:19.840Z,1.90
2023-03-11T19:47:50.712Z,3.05
2023-03-11T19:50:18.637Z,2.83
2023-03-11T19:52:45.927Z,2.83
2023-03-11T19:55:13.252Z,2.35
2023-03-11T19:57:40.511Z,3.67
2023-03-11T20:00:08.338Z,2.50
2023-03-11T20:02:35.639Z,1.75
2023-03-11T20:05:03.806Z,4.38
2023-03-11T20:07:31.262Z,2.83
2023-03-11T20:09:58.585Z,3.03
2023-03-11T20:12:25.884Z,3.92
2023-03-11T20:14:54.497Z,3.25
2023-03-11T20:17:21.846Z,3.60
2023-03-11T20:19:49.176Z,3.15
2023-03-11T20:22:16.729Z,3.53
2023-03-11T20:24:44.716Z,3.00
2023-03-11T20:27:12.015Z,2.72
2023-03-11T20:29:39.424Z,4.00
2023-03-11T20:32:06.742Z,3.60
2023-03-11T20:34:33.994Z,3.55
2023-03-11T20:37:01.298Z,3.08
2023-03-11T20:39:28.699Z,4.82
2023-03-11T20:41:55.997Z,2.47
2023-03-11T20:44:23.264Z,2.95
2023-03-11T20:46:50.802Z,3.38
2023-03-11T20:49:18.112Z,3.45
2023-03-11T20:51:48.124Z,2.35
2023-03-11T20:54:15.800Z,2.17
2023-03-11T20:56:43.531Z,2.10
2023-03-11T20:59:12.977Z,2.45
2023-03-11T21:01:40.474Z,4.13
2023-03-11T21:04:07.812Z,3.05
2023-03-11T21:06:37.271Z,2.47
2023-03-11T21:09:06.361Z,2.65
2023-03-11T21:11:33.933Z,2.67
2023-03-11T21:14:01.461Z,3.42
2023-03-11T21:16:28.867Z,3.85
2023-03-11T21:18:56.279Z,2.70
2023-03-11T21:21:23.672Z,3.10
2023-03-11T21:23:51.341Z,3.00
2023-03-11T21:26:18.735Z,3.38
2023-03-11T21:28:46.684Z,2.30
2023-03-11T21:31:16.659Z,1.98
2023-03-11T21:33:44.137Z,2.75
2023-03-11T21:36:11.972Z,2.22
2023-03-11T21:38:42.682Z,2.13
2023-03-11T21:41:12.297Z,2.85
2023-03-11T21:43:39.860Z,4.22
2023-03-11T21:46:07.467Z,4.82
2023-03-11T21:48:34.899Z,2.17
2023-03-11T21:51:02.646Z,3.22
2023-03-11T21:53:30.372Z,2.97
2023-03-11T21:55:59.356Z,3.20
2023-03-11T21:58:27.032Z,4.07
2023-03-11T22:00:54.429Z,2.55
2023-03-11T22:03:21.880Z,2.17
2023-03-11T22:05:49.324Z,4.75
2023-03-11T22:08:16.695Z,2.20
2023-03-11T22:10:44.074Z,3.97
2023-03-11T22:13:11.868Z,2.72
2023-03-11T22:15:39.303Z,3.58
2023-03-11T22:18:06.649Z,3.88
2023-03-11T22:20:34.129Z,3.55
2023-03-11T22:23:02.257Z,2.88
2023-03-11T22:25:29.595Z,3.17
2023-03-11T22:27:57.024Z,3.42
2023-03-11T22:30:24.414Z,2.90
2023-03-11T22:32:51.852Z,4.53
2023-03-11T22:35:19.145Z,4.43
2023-03-11T22:37:46.384Z,2.88
2023-03-11T22:40:13.749Z,3.53
2023-03-11T22:42:41.014Z,2.65
2023-03-11T22:45:08.462Z,3.88
2023-03-11T22:47:35.736Z,3.05
2023-03-11T22:50:03.606Z,2.80
2023-03-11T22:52:30.904Z,4.78
2023-03-11T22:54:58.211Z,3.70
2023-03-11T22:57:25.486Z,4.65
2023-03-11T22:59:52.806Z,3.97
2023-03-11T23:02:20.083Z,3.88
2023-03-11T23:04:47.348Z,3.05
2023-03-11T23:07:14.614Z,4.28
2023-03-11T23:09:42.941Z,3.42
2023-03-11T23:12:10.285Z,7.00
2023-03-11T23:14:44.982Z,4.78
2023-03-11T23:17:12.677Z,3.72
2023-03-11T23:19:40.035Z,3.05
2023-03-11T23:22:07.424Z,4.35
2023-03-11T23:24:34.654Z,3.92
2023-03-11T23:27:04.872Z,2.65
2023-03-11T23:29:32.369Z,4.68
2023-03-11T23:31:59.627Z,4.35
2023-03-11T23:34:26.913Z,5.65
2023-03-11T23:36:54.400Z,5.55
2023-03-11T23:39:21.692Z,4.85
2023-03-11T23:41:50.138Z,4.93
2023-03-11T23:44:17.458Z,4.53
2023-03-11T23:46:44.783Z,4.65
2023-03-11T23:49:12.033Z,4.38
2023-03-11T23:51:39.348Z,3.67
2023-03-11T23:54:06.702Z,2.83
2023-03-11T23:56:33.999Z,3.67
2023-03-11T23:59:01.256Z,3.13
